Time;durP1;ratioP1;P1;durP2;ratioP2;P2;SDS_P1;SDS_P2;PMS_P1;PMS_P2;Temp;Humidity;BMP_temperature;BMP_pressure;BME280_temperature;BME280_humidity;BME280_pressure;Samples;Min_cycle;Max_cycle;Signal;HPM_P1;HPM_P2
2024/01/01 00:00:00;;;;;;;5.07;2.60;;;11.70;61.80;;;;;;2329072;54;20952;-68
2024/01/01 00:02:27;;;;;;;6.15;3.12;;;11.60;61.70;;;;;;2582262;53;20940;-68
2024/01/01 00:04:53;;;;;;;5.75;2.55;;;11.70;62.00;;;;;;2337371;54;20948;-70
2024/01/01 00:07:20;;;;;;;6.78;3.45;;;11.70;62.00;;;;;;2337330;54;20948;-68
2024/01/01 00:09:46;;;;;;;5.05;2.80;;;11.60;61.90;;;;;;2337439;54;20973;-69
2024/01/01 00:12:12;;;;;;;7.07;3.72;;;11.60;61.90;;;;;;2337733;53;21016;-69
2024/01/01 00:14:38;;;;;;;6.90;3.03;;;11.70;62.10;;;;;;2581795;53;20993;-70
2024/01/01 00:17:05;;;;;;;5.47;2.95;;;11.70;62.10;;;;;;2337151;54;21474;-69
2024/01/01 00:19:31;;;;;;;6.00;2.78;;;11.60;62.10;;;;;;2326054;54;20977;-69
2024/01/01 00:22:02;;;;;;;5.18;2.70;;;11.60;62.20;;;;;;2577763;53;20925;-69
2024/01/01 00:24:29;;;;;;;4.87;2.67;;;11.60;62.20;;;;;;2332769;54;20996;-69
2024/01/01 00:26:55;;;;;;;5.53;2.85;;;11.60;62.20;;;;;;2578060;53;20961;-68
2024/01/01 00:29:21;;;;;;;6.20;2.95;;;11.50;62.30;;;;;;2325487;54;20960;-69
2024/01/01 00:31:51;;;;;;;5.30;2.85;;;11.50;62.40;;;;;;2341789;54;21855;-69
2024/01/01 00:34:17;;;;;;;7.32;2.85;;;11.50;62.40;;;;;;2333010;54;20964;-69
2024/01/01 00:36:44;;;;;;;6.18;3.25;;;11.40;62.40;;;;;;2332508;54;21008;-69
2024/01/01 00:39:10;;;;;;;7.28;3.37;;;11.40;62.40;;;;;;2576959;53;20950;-70
2024/01/01 00:41:40;;;;;;;6.37;3.33;;;11.40;62.40;;;;;;2333088;54;20928;-69
2024/01/01 00:44:07;;;;;;;7.12;3.80;;;11.40;62.50;;;;;;2346297;54;21435;-68
2024/01/01 00:46:33;;;;;;;8.73;3.50;;;11.30;62.50;;;;;;2333460;54;21009;-69
2024/01/01 00:49:02;;;;;;;6.97;3.45;;;11.30;62.60;;;;;;2331886;54;21490;-68
2024/01/01 00:51:29;;;;;;;5.97;3.33;;;11.20;62.60;;;;;;2320824;54;20961;-69
2024/01/01 00:53:55;;;;;;;8.60;3.65;;;11.30;62.70;;;;;;2562925;53;20996;-69
2024/01/01 00:56:21;;;;;;;6.37;3.03;;;11.20;62.80;;;;;;2337606;54;20964;-69
2024/01/01 00:58:49;;;;;;;6.85;2.65;;;11.20;62.80;;;;;;2337464;54;21013;-68
2024/01/01 01:01:15;;;;;;;4.72;2.55;;;11.20;63.00;;;;;;2335893;54;20937;-69
2024/01/01 01:03:42;;;;;;;7.53;2.58;;;11.10;63.00;;;;;;2579400;53;20965;-68
2024/01/01 01:06:08;;;;;;;6.05;2.92;;;11.10;63.10;;;;;;2580247;53;21779;-69
2024/01/01 01:08:36;;;;;;;5.55;2.30;;;11.10;63.10;;;;;;2337864;54;20989;-68
2024/01/01 01:11:03;;;;;;;6.12;2.22;;;11.10;63.10;;;;;;2338010;54;20937;-68
2024/01/01 01:13:30;;;;;;;4.70;2.15;;;11.10;63.10;;;;;;2338038;54;20968;-68
2024/01/01 01:15:56;;;;;;;3.80;2.03;;;11.00;63.10;;;;;;2582566;53;20988;-68
2024/01/01 01:18:23;;;;;;;6.43;2.10;;;11.10;63.30;;;;;;2582928;53;20917;-68
2024/01/01 01:20:49;;;;;;;7.78;2.53;;;11.10;63.20;;;;;;2337161;54;20985;-68
2024/01/01 01:23:16;;;;;;;5.68;1.80;;;11.00;63.30;;;;;;2577847;53;20957;-68
2024/01/01 01:25:44;;;;;;;4.60;2.10;;;11.00;63.30;;;;;;2335621;54;21133;-68
2024/01/01 01:28:11;;;;;;;5.22;1.85;;;11.00;63.30;;;;;;2341158;54;21065;-68
2024/01/01 01:30:38;;;;;;;6.05;2.08;;;11.00;63.30;;;;;;2570296;53;20956;-68
2024/01/01 01:33:04;;;;;;;3.50;1.75;;;11.00;63.40;;;;;;2337001;54;20945;-68
2024/01/01 01:35:33;;;;;;;3.47;1.48;;;11.00;63.40;;;;;;2337119;54;21044;-68
2024/01/01 01:37:59;;;;;;;6.15;1.90;;;11.00;63.50;;;;;;2337656;54;21727;-68
2024/01/01 01:40:26;;;;;;;4.20;1.77;;;11.00;63.50;;;;;;2338502;54;21517;-68
2024/01/01 01:42:52;;;;;;;3.55;1.30;;;11.00;63.50;;;;;;2582215;53;21025;-68
2024/01/01 01:45:18;;;;;;;5.25;1.70;;;11.00;63.60;;;;;;2330058;54;21464;-68
2024/01/01 01:47:48;;;;;;;6.22;1.40;;;11.00;63.60;;;;;;2336003;54;20925;-68
2024/01/01 01:50:16;;;;;;;4.60;1.20;;;11.00;63.60;;;;;;2337603;54;20933;-68
2024/01/01 01:52:43;;;;;;;3.83;1.25;;;11.00;63.60;;;;;;2336136;54;20984;-68
2024/01/01 01:55:09;;;;;;;4.32;1.30;;;11.00;63.70;;;;;;2582984;53;21782;-69
2024/01/01 01:57:36;;;;;;;4.30;1.27;;;11.00;63.70;;;;;;2337562;54;20929;-68
2024/01/01 02:00:04;;;;;;;5.00;1.15;;;11.00;63.60;;;;;;2582062;53;21040;-68
2024/01/01 02:02:32;;;;;;;5.75;2.90;;;11.00;63.60;;;;;;2578174;53;20983;-68
2024/01/01 02:04:59;;;;;;;5.90;2.22;;;11.00;63.60;;;;;;2336941;54;21037;-68
2024/01/01 02:07:26;;;;;;;4.68;1.60;;;11.00;63.60;;;;;;2582267;53;20997;-67
2024/01/01 02:09:53;;;;;;;4.37;1.60;;;11.00;64.30;;;;;;2337225;54;20957;-67
2024/01/01 02:12:19;;;;;;;3.90;1.20;;;11.00;63.60;;;;;;2582954;53;21881;-68
2024/01/01 02:14:49;;;;;;;4.37;1.37;;;11.00;63.60;;;;;;2337097;54;20957;-68
2024/01/01 02:17:17;;;;;;;4.68;0.98;;;11.00;63.60;;;;;;2582522;53;20984;-67
2024/01/01 02:19:44;;;;;;;2.75;0.90;;;11.00;63.60;;;;;;2337202;54;21106;-68
2024/01/01 02:22:10;;;;;;;2.78;0.90;;;11.00;63.60;;;;;;2337583;54;20949;-68
2024/01/01 02:24:37;;;;;;;5.55;1.00;;;11.00;63.60;;;;;;2337968;54;20953;-67
2024/01/01 02:27:06;;;;;;;5.93;1.12;;;11.00;63.60;;;;;;2582951;53;21671;-67
2024/01/01 02:29:32;;;;;;;3.58;1.00;;;11.00;63.60;;;;;;2581864;53;20945;-68
2024/01/01 02:31:58;;;;;;;2.95;0.73;;;11.00;64.30;;;;;;2337821;54;21387;-67
2024/01/01 02:34:27;;;;;;;4.03;1.30;;;11.00;63.60;;;;;;2582205;53;20921;-68
2024/01/01 02:36:55;;;;;;;3.28;0.75;;;11.00;63.60;;;;;;2582040;53;21748;-68
2024/01/01 02:39:24;;;;;;;3.35;0.90;;;11.00;63.60;;;;;;2336299;54;20924;-68
2024/01/01 02:41:51;;;;;;;3.37;0.80;;;11.00;63.60;;;;;;2336605;54;21025;-68
2024/01/01 02:44:18;;;;;;;3.87;0.80;;;11.00;63.50;;;;;;2337755;54;20944;-68
2024/01/01 02:46:44;;;;;;;3.85;0.70;;;11.00;63.60;;;;;;2335648;54;20925;-68
2024/01/01 02:49:11;;;;;;;3.33;0.65;;;11.00;63.60;;;;;;2336930;54;20972;-68
2024/01/01 02:51:41;;;;;;;2.35;0.90;;;11.00;63.60;;;;;;2578193;53;20973;-67
2024/01/01 02:54:07;;;;;;;4.10;1.00;;;11.00;63.40;;;;;;2580891;53;21418;-68
2024/01/01 02:56:34;;;;;;;4.37;0.90;;;11.00;63.50;;;;;;2336996;54;20956;-68
2024/01/01 02:59:00;;;;;;;3.85;0.70;;;11.00;63.40;;;;;;2338309;54;21266;-68
2024/01/01 03:01:26;;;;;;;4.32;0.65;;;11.00;63.40;;;;;;2582736;53;21000;-68
2024/01/01 03:03:53;;;;;;;2.90;0.77;;;11.00;63.30;;;;;;2337983;54;21020;-68
2024/01/01 03:06:19;;;;;;;3.10;0.70;;;11.00;63.40;;;;;;2337625;54;20917;-68
2024/01/01 03:08:47;;;;;;;3.28;0.70;;;11.00;63.40;;;;;;2336503;54;20957;-68
2024/01/01 03:11:14;;;;;;;2.75;0.70;;;11.00;63.40;;;;;;2336445;54;20981;-68
2024/01/01 03:13:40;;;;;;;3.17;0.85;;;11.00;63.30;;;;;;2336323;54;20913;-68
2024/01/01 03:16:07;;;;;;;2.78;0.90;;;10.90;63.30;;;;;;2338158;54;20964;-68
2024/01/01 03:18:33;;;;;;;3.85;0.70;;;10.90;63.30;;;;;;2579817;53;20956;-68
2024/01/01 03:21:00;;;;;;;3.95;1.05;;;10.90;63.20;;;;;;2338511;54;20937;-68
2024/01/01 03:23:26;;;;;;;2.22;0.60;;;10.90;63.20;;;;;;2341641;54;20921;-68
2024/01/01 03:25:52;;;;;;;2.55;0.60;;;10.90;63.30;;;;;;2316695;54;20996;-69
2024/01/01 03:28:22;;;;;;;1.62;0.60;;;10.90;63.30;;;;;;2336910;54;20912;-68
2024/01/01 03:30:49;;;;;;;2.90;0.75;;;10.90;63.30;;;;;;2336839;54;20918;-67
2024/01/01 03:33:16;;;;;;;2.37;0.65;;;10.90;63.30;;;;;;2579566;53;21675;-68
2024/01/01 03:35:42;;;;;;;3.62;0.90;;;10.90;63.30;;;;;;2336019;54;20948;-68
2024/01/01 03:38:10;;;;;;;2.42;0.68;;;10.90;63.30;;;;;;2336865;54;20913;-68
2024/01/01 03:40:36;;;;;;;3.65;0.75;;;10.90;63.20;;;;;;2336779;54;21044;-68
2024/01/01 03:43:03;;;;;;;2.58;0.70;;;10.90;63.30;;;;;;2337132;54;20981;-68
2024/01/01 03:45:31;;;;;;;2.83;0.60;;;10.90;63.30;;;;;;2335749;54;20965;-68
2024/01/01 03:47:57;;;;;;;2.10;0.60;;;10.90;63.30;;;;;;2582759;53;20985;-68
2024/01/01 03:50:24;;;;;;;4.03;1.00;;;10.80;63.20;;;;;;2582412;53;20937;-68
2024/01/01 03:52:51;;;;;;;2.53;0.90;;;10.80;63.30;;;;;;2337198;54;20977;-68
2024/01/01 03:55:18;;;;;;;1.98;0.60;;;10.80;63.30;;;;;;2337561;54;21021;-68
2024/01/01 03:57:44;;;;;;;4.12;0.60;;;10.80;63.30;;;;;;2337289;54;21442;-67
2024/01/01 04:00:11;;;;;;;2.90;0.75;;;10.80;63.30;;;;;;2337646;54;21427;-68
2024/01/01 04:02:40;;;;;;;2.05;0.70;;;10.80;63.30;;;;;;2337668;54;24247;-67
2024/01/01 04:05:06;;;;;;;3.55;1.12;;;10.80;63.30;;;;;;2337484;54;20976;-68
2024/01/01 04:07:38;;;;;;;2.42;0.80;;;10.80;63.30;;;;;;2337113;54;20936;-69
2024/01/01 04:10:06;;;;;;;3.47;0.85;;;10.80;63.20;;;;;;2339696;54;21414;-68
2024/01/01 04:12:32;;;;;;;2.70;0.70;;;10.80;63.20;;;;;;2337072;54;21514;-67
2024/01/01 04:14:58;;;;;;;3.00;0.60;;;10.80;63.30;;;;;;2582686;53;20953;-68
2024/01/01 04:17:25;;;;;;;3.85;0.70;;;10.80;63.10;;;;;;2582502;53;20981;-68
2024/01/01 04:19:54;;;;;;;4.72;0.73;;;10.70;63.00;;;;;;2582147;53;21462;-68
2024/01/01 04:22:24;;;;;;;2.85;0.75;;;10.80;63.20;;;;;;2337412;54;21454;-67
2024/01/01 04:24:53;;;;;;;2.83;0.60;;;10.80;63.10;;;;;;2582731;53;21021;-68
2024/01/01 04:27:19;;;;;;;3.00;0.65;;;10.80;63.20;;;;;;2337043;54;20957;-68
2024/01/01 04:29:45;;;;;;;2.58;0.70;;;10.80;63.20;;;;;;2337824;54;20949;-67
2024/01/01 04:32:13;;;;;;;2.53;0.70;;;10.80;63.20;;;;;;2339053;54;21037;-67
2024/01/01 04:34:39;;;;;;;5.55;1.05;;;10.80;63.10;;;;;;2334766;54;21754;-68
2024/01/01 04:37:05;;;;;;;2.83;0.80;;;10.80;63.10;;;;;;2337929;54;20988;-68
2024/01/01 04:39:31;;;;;;;3.83;1.12;;;10.80;63.20;;;;;;2582936;53;21983;-68
2024/01/01 04:41:58;;;;;;;4.28;0.77;;;10.80;63.10;;;;;;2337140;54;21012;-67
2024/01/01 04:44:27;;;;;;;3.25;0.88;;;10.80;63.00;;;;;;2337167;54;21759;-68
2024/01/01 04:46:53;;;;;;;2.50;0.65;;;10.80;63.10;;;;;;2337684;54;21017;-68
2024/01/01 04:49:23;;;;;;;3.30;0.80;;;10.80;63.00;;;;;;2338209;54;20925;-68
2024/01/01 04:51:49;;;;;;;2.20;0.70;;;10.70;62.80;;;;;;2337506;54;20957;-68
2024/01/01 04:54:15;;;;;;;2.58;0.50;;;10.70;62.90;;;;;;2583149;53;21501;-68
2024/01/01 04:56:43;;;;;;;3.90;0.80;;;10.70;62.90;;;;;;2582874;53;20992;-68
2024/01/01 04:59:09;;;;;;;3.15;0.52;;;10.70;62.90;;;;;;2583215;53;20933;-68
2024/01/01 05:01:36;;;;;;;3.25;0.70;;;10.70;62.90;;;;;;2337300;54;21391;-70
2024/01/01 05:04:05;;;;;;;2.28;0.62;;;10.70;63.00;;;;;;2582737;53;20961;-68
2024/01/01 05:06:33;;;;;;;5.53;0.77;;;10.70;62.90;;;;;;2582366;53;20981;-68
2024/01/01 05:08:59;;;;;;;3.12;0.62;;;10.50;62.70;;;;;;2337726;54;21693;-68
2024/01/01 05:11:25;;;;;;;3.67;0.70;;;10.60;62.80;;;;;;2337527;54;21028;-67
2024/01/01 05:13:52;;;;;;;5.80;0.88;;;10.70;62.90;;;;;;2338091;54;21005;-68
2024/01/01 05:16:19;;;;;;;4.18;0.93;;;10.70;62.90;;;;;;2337527;54;20977;-68
2024/01/01 05:18:47;;;;;;;3.80;0.77;;;10.60;62.80;;;;;;2337781;54;20981;-68
2024/01/01 05:21:13;;;;;;;4.70;1.10;;;10.60;62.80;;;;;;2337949;54;20905;-68
2024/01/01 05:23:39;;;;;;;3.75;0.90;;;10.70;63.00;;;;;;2582050;53;21803;-68
2024/01/01 05:26:06;;;;;;;3.75;0.73;;;10.70;63.00;;;;;;2337747;54;21052;-68
2024/01/01 05:28:33;;;;;;;2.37;0.65;;;10.70;63.00;;;;;;2337037;54;20968;-68
2024/01/01 05:30:59;;;;;;;4.70;0.80;;;10.70;63.00;;;;;;2579005;53;21469;-67
2024/01/01 05:33:25;;;;;;;3.10;1.00;;;10.70;63.40;;;;;;2336334;54;20977;-68
2024/01/01 05:35:56;;;;;;;3.25;0.75;;;10.70;62.60;;;;;;2579242;53;20929;-68
2024/01/01 05:38:22;;;;;;;2.28;0.70;;;10.70;62.70;;;;;;2336842;54;21735;-68
2024/01/01 05:40:48;;;;;;;7.53;1.23;;;10.70;62.80;;;;;;2338343;54;20945;-68
2024/01/01 05:43:15;;;;;;;3.67;0.80;;;10.70;62.90;;;;;;2337551;54;21099;-68
2024/01/01 05:45:45;;;;;;;3.62;0.90;;;10.70;62.90;;;;;;2337248;54;20976;-68
2024/01/01 05:48:11;;;;;;;3.05;0.77;;;10.70;62.90;;;;;;2337738;54;20957;-67
2024/01/01 05:50:41;;;;;;;3.97;0.90;;;10.70;63.00;;;;;;2337093;54;21000;-68
2024/01/01 05:53:07;;;;;;;3.40;0.60;;;10.80;63.10;;;;;;2339534;54;21347;-68
2024/01/01 05:55:35;;;;;;;2.75;0.70;;;10.80;63.20;;;;;;2332516;54;20980;-68
2024/01/01 05:58:02;;;;;;;4.65;0.95;;;10.70;62.80;;;;;;2337404;54;20953;-67
2024/01/01 06:00:29;;;;;;;5.37;0.98;;;10.70;62.80;;;;;;2340968;54;21412;-68
2024/01/01 06:02:57;;;;;;;4.25;0.73;;;10.80;62.90;;;;;;2334063;54;20929;-68
2024/01/01 06:05:24;;;;;;;3.28;0.80;;;10.80;62.90;;;;;;2337678;54;20972;-68
2024/01/01 06:07:51;;;;;;;1.67;0.55;;;10.70;62.90;;;;;;2337211;54;20981;-69
2024/01/01 06:10:17;;;;;;;2.58;0.80;;;10.80;63.10;;;;;;2337379;54;20921;-68
2024/01/01 06:12:44;;;;;;;5.90;0.80;;;10.80;63.10;;;;;;2335132;54;20970;-68
2024/01/01 06:15:11;;;;;;;3.08;0.80;;;10.70;63.00;;;;;;2582761;53;21803;-68
2024/01/01 06:17:37;;;;;;;1.90;0.55;;;10.70;63.10;;;;;;2582404;53;20940;-68
2024/01/01 06:20:04;;;;;;;5.07;0.68;;;10.70;63.10;;;;;;2337869;54;21282;-68
2024/01/01 06:22:31;;;;;;;3.12;0.98;;;10.70;63.20;;;;;;2333948;54;20953;-68
2024/01/01 06:24:57;;;;;;;2.05;0.60;;;10.70;63.10;;;;;;2311805;54;20941;-68
2024/01/01 06:27:23;;;;;;;3.42;0.60;;;10.70;63.10;;;;;;2337375;54;20993;-68
2024/01/01 06:29:51;;;;;;;5.12;1.05;;;10.70;63.20;;;;;;2582393;53;21064;-68
2024/01/01 06:32:17;;;;;;;3.40;0.73;;;10.70;63.20;;;;;;2337380;54;21004;-68
2024/01/01 06:34:45;;;;;;;3.85;0.70;;;10.70;63.20;;;;;;2336771;54;21028;-68
2024/01/01 06:37:12;;;;;;;2.40;0.60;;;10.70;63.30;;;;;;2337653;54;21740;-68
2024/01/01 06:39:38;;;;;;;3.08;0.80;;;10.70;63.20;;;;;;2337013;54;21593;-68
2024/01/01 06:42:04;;;;;;;2.58;0.80;;;10.60;63.10;;;;;;2338508;54;20961;-68
2024/01/01 06:44:31;;;;;;;3.78;1.15;;;10.70;63.30;;;;;;2332833;54;20953;-68
2024/01/01 06:46:57;;;;;;;3.12;0.80;;;10.60;63.20;;;;;;2578408;53;20957;-69
2024/01/01 06:49:23;;;;;;;4.45;0.70;;;10.60;63.10;;;;;;2581061;52;21036;-68
2024/01/01 06:51:50;;;;;;;6.07;1.00;;;10.60;63.10;;;;;;2582255;52;20948;-68
2024/01/01 06:54:17;;;;;;;3.78;0.93;;;10.60;63.20;;;;;;2337253;54;20937;-67
2024/01/01 06:56:45;;;;;;;1.73;0.90;;;10.60;63.20;;;;;;2337042;54;21840;-68
2024/01/01 06:59:12;;;;;;;4.55;0.80;;;10.60;63.20;;;;;;2337197;54;20957;-68
2024/01/01 07:01:41;;;;;;;2.60;0.70;;;10.60;63.20;;;;;;2314888;54;20945;-68
2024/01/01 07:04:08;;;;;;;3.67;0.90;;;10.60;63.30;;;;;;2337775;54;20977;-68
2024/01/01 07:06:34;;;;;;;4.68;0.90;;;10.60;63.20;;;;;;2336172;54;21896;-68
2024/01/01 07:09:01;;;;;;;5.43;0.80;;;10.60;63.20;;;;;;2345736;54;20971;-68
2024/01/01 07:11:30;;;;;;;5.40;1.00;;;10.60;63.20;;;;;;2324832;54;20978;-68
2024/01/01 07:13:57;;;;;;;1.98;0.62;;;10.60;63.30;;;;;;2583235;53;20917;-70
2024/01/01 07:16:24;;;;;;;4.75;1.08;;;10.60;63.30;;;;;;2582702;53;20972;-68
2024/01/01 07:18:50;;;;;;;3.15;0.77;;;10.40;63.10;;;;;;2337211;54;20937;-68
2024/01/01 07:21:20;;;;;;;5.00;0.65;;;10.60;63.30;;;;;;2337719;54;20925;-68
2024/01/01 07:23:47;;;;;;;3.35;0.80;;;10.60;63.20;;;;;;2574155;52;20926;-68
2024/01/01 07:26:14;;;;;;;3.65;0.70;;;10.60;63.20;;;;;;2335010;54;21702;-68
2024/01/01 07:28:42;;;;;;;2.22;0.60;;;10.60;63.20;;;;;;2336968;54;21277;-68
2024/01/01 07:31:09;;;;;;;2.35;0.55;;;10.60;63.20;;;;;;2582724;53;21672;-68
2024/01/01 07:33:36;;;;;;;3.97;0.80;;;10.60;63.80;;;;;;2336445;54;20973;-68
2024/01/01 07:36:02;;;;;;;2.33;0.70;;;10.60;63.10;;;;;;2337770;54;21056;-67
2024/01/01 07:38:28;;;;;;;2.65;0.70;;;10.60;63.10;;;;;;2337376;54;20932;-68
2024/01/01 07:40:55;;;;;;;1.52;0.43;;;10.60;63.10;;;;;;2337650;54;20988;-68
2024/01/01 07:43:22;;;;;;;4.12;0.75;;;10.50;63.00;;;;;;2337722;54;20988;-68
2024/01/01 07:45:49;;;;;;;2.15;0.57;;;10.50;63.00;;;;;;2582516;53;21386;-68
2024/01/01 07:48:15;;;;;;;1.85;0.60;;;10.50;63.10;;;;;;2337207;54;20977;-67
2024/01/01 07:50:43;;;;;;;4.12;0.57;;;10.50;63.10;;;;;;2337146;54;21068;-68
2024/01/01 07:53:09;;;;;;;1.05;0.43;;;10.50;63.10;;;;;;2337858;54;21025;-68
2024/01/01 07:55:36;;;;;;;2.08;0.50;;;10.50;63.10;;;;;;2337130;54;21438;-68
2024/01/01 07:58:03;;;;;;;1.23;0.40;;;10.50;63.10;;;;;;2338002;54;21135;-68
2024/01/01 08:00:29;;;;;;;2.72;0.60;;;10.50;63.10;;;;;;2337179;54;20925;-68
2024/01/01 08:02:55;;;;;;;2.10;0.50;;;10.50;63.10;;;;;;2582223;53;20957;-68
2024/01/01 08:05:22;;;;;;;3.35;0.75;;;10.50;63.10;;;;;;2337428;54;20992;-68
2024/01/01 08:07:48;;;;;;;3.72;0.70;;;10.50;63.10;;;;;;2581938;53;20996;-68
2024/01/01 08:10:24;;;;;;;3.17;0.70;;;10.50;63.10;;;;;;2337769;54;20961;-68
2024/01/01 08:12:50;;;;;;;2.87;0.60;;;10.30;62.80;;;;;;2337776;54;21415;-68
2024/01/01 08:15:16;;;;;;;3.05;0.50;;;10.50;63.20;;;;;;2337790;54;21074;-68
2024/01/01 08:17:43;;;;;;;2.05;0.55;;;10.50;63.20;;;;;;2582898;53;20929;-68
2024/01/01 08:20:21;;;;;;;3.08;0.70;;;10.50;63.30;;;;;;2338373;54;20936;-68
2024/01/01 08:23:06;;;;;;;2.42;0.60;;;10.50;63.80;;;;;;2335713;54;21016;-68
2024/01/01 08:25:32;;;;;;;3.42;0.70;;;10.60;63.00;;;;;;2337026;54;21456;-68
2024/01/01 08:27:59;;;;;;;2.22;0.52;;;10.60;63.20;;;;;;2337988;54;21481;-68
2024/01/01 08:30:25;;;;;;;4.25;1.00;;;10.60;63.30;;;;;;2580818;53;20973;-68
2024/01/01 08:32:52;;;;;;;5.78;0.93;;;10.60;63.10;;;;;;2333952;54;20921;-68
2024/01/01 08:35:20;;;;;;;2.72;0.68;;;10.60;63.20;;;;;;2337548;54;21036;-68
2024/01/01 08:37:48;;;;;;;3.45;0.55;;;10.60;63.20;;;;;;2337226;54;20929;-67
2024/01/01 08:40:14;;;;;;;3.12;0.60;;;10.60;63.20;;;;;;2335314;54;20997;-69
2024/01/01 08:42:41;;;;;;;3.08;0.68;;;10.60;63.20;;;;;;2336199;54;20929;-67
2024/01/01 08:45:43;;;;;;;2.40;0.70;;;10.60;63.30;;;;;;2337824;54;20932;-68
2024/01/01 08:48:10;;;;;;;3.42;0.82;;;10.60;63.00;;;;;;2338110;54;20989;-67
2024/01/01 08:50:36;;;;;;;4.15;1.00;;;10.60;63.40;;;;;;2336698;54;20976;-68
2024/01/01 08:53:03;;;;;;;5.30;1.10;;;10.70;63.50;;;;;;2338030;54;20912;-68
2024/01/01 08:55:29;;;;;;;3.00;0.80;;;10.70;63.50;;;;;;2338378;54;21040;-68
2024/01/01 08:57:55;;;;;;;3.80;0.93;;;10.70;63.50;;;;;;2337674;54;20944;-68
2024/01/01 09:00:22;;;;;;;2.37;0.90;;;10.70;63.60;;;;;;2337368;54;21663;-68
2024/01/01 09:02:48;;;;;;;4.75;0.90;;;10.70;63.60;;;;;;2337130;54;20937;-68
2024/01/01 09:05:15;;;;;;;3.50;0.90;;;10.80;63.60;;;;;;2337872;54;20929;-68
2024/01/01 09:07:42;;;;;;;5.22;0.90;;;10.80;63.60;;;;;;2337587;54;20927;-68
2024/01/01 09:10:10;;;;;;;8.43;0.95;;;10.80;63.60;;;;;;2582131;53;21269;-67
2024/01/01 09:12:39;;;;;;;3.10;0.80;;;10.80;63.60;;;;;;2582404;53;21012;-68
2024/01/01 09:15:06;;;;;;;4.82;1.08;;;10.80;64.20;;;;;;2337862;54;20961;-68
2024/01/01 09:17:36;;;;;;;3.60;1.00;;;10.90;63.50;;;;;;2582631;53;21714;-68
2024/01/01 09:20:03;;;;;;;4.62;1.00;;;10.90;63.40;;;;;;2337575;54;20965;-67
2024/01/01 09:22:29;;;;;;;4.68;1.00;;;10.90;63.40;;;;;;2337354;54;21739;-68
2024/01/01 09:24:55;;;;;;;4.43;0.85;;;10.90;63.50;;;;;;2583075;53;20973;-68
2024/01/01 09:27:26;;;;;;;3.20;0.88;;;11.00;63.50;;;;;;2337609;54;20933;-68
2024/01/01 09:29:52;;;;;;;7.20;1.30;;;11.00;63.60;;;;;;2582459;53;21808;-68
2024/01/01 09:32:19;;;;;;;4.90;1.15;;;11.00;63.60;;;;;;2337925;54;20944;-68
2024/01/01 09:34:46;;;;;;;3.53;0.82;;;11.00;63.60;;;;;;2337143;54;20992;-68
2024/01/01 09:37:12;;;;;;;5.87;1.25;;;11.10;63.70;;;;;;2338091;54;20958;-67
2024/01/01 09:39:39;;;;;;;2.25;0.75;;;11.10;63.70;;;;;;2337275;54;20941;-68
2024/01/01 09:42:05;;;;;;;4.32;0.80;;;11.10;63.70;;;;;;2583540;53;20985;-68
2024/01/01 09:44:32;;;;;;;3.70;0.80;;;11.20;63.80;;;;;;2580628;53;20961;-68
2024/01/01 09:46:58;;;;;;;4.07;0.90;;;11.20;63.70;;;;;;2334135;54;21008;-68
2024/01/01 09:49:27;;;;;;;2.15;0.57;;;11.20;63.70;;;;;;2337730;53;20956;-68
2024/01/01 09:51:56;;;;;;;2.50;0.73;;;11.30;63.80;;;;;;2337584;54;20952;-68
2024/01/01 09:54:22;;;;;;;4.20;0.80;;;11.30;63.80;;;;;;2582997;53;20952;-68
2024/01/01 09:56:48;;;;;;;4.95;0.95;;;11.40;63.90;;;;;;2336792;54;21000;-68
2024/01/01 09:59:38;;;;;;;2.87;0.80;;;11.40;63.90;;;;;;2580083;53;20961;-68
2024/01/01 10:02:05;;;;;;;2.58;0.73;;;11.40;63.40;;;;;;2551030;53;20921;-68
2024/01/01 10:04:31;;;;;;;2.85;0.62;;;11.50;63.90;;;;;;2337195;54;21598;-68
2024/01/01 10:07:03;;;;;;;4.78;0.77;;;11.50;63.90;;;;;;2338130;54;21683;-68
2024/01/01 10:09:30;;;;;;;3.80;0.80;;;11.60;64.00;;;;;;2337944;54;20925;-68
2024/01/01 10:12:09;;;;;;;3.33;0.85;;;11.60;64.00;;;;;;2579756;53;21806;-68
2024/01/01 10:14:57;;;;;;;2.97;0.80;;;11.60;63.40;;;;;;2580961;53;20949;-68
2024/01/01 10:17:25;;;;;;;3.83;0.82;;;11.70;63.10;;;;;;2583089;53;21477;-68
2024/01/01 10:20:01;;;;;;;4.20;1.00;;;11.70;63.50;;;;;;2338806;54;21004;-68
2024/01/01 10:22:31;;;;;;;3.78;1.08;;;11.70;63.50;;;;;;2578623;53;21028;-68
2024/01/01 10:25:13;;;;;;;5.50;1.15;;;11.80;63.30;;;;;;2335425;54;20949;-68
2024/01/01 10:27:43;;;;;;;6.25;1.00;;;11.80;62.90;;;;;;2582782;53;20993;-68
2024/01/01 10:30:10;;;;;;;6.07;0.82;;;11.80;63.30;;;;;;2338201;54;20921;-68
2024/01/01 10:32:36;;;;;;;5.43;1.10;;;11.80;63.10;;;;;;2577922;53;21771;-68
2024/01/01 10:35:03;;;;;;;4.53;1.20;;;11.80;63.20;;;;;;2581422;53;21016;-69
2024/01/01 10:37:30;;;;;;;5.45;1.05;;;11.90;63.10;;;;;;2337709;54;21434;-68
2024/01/01 10:40:04;;;;;;;4.72;1.00;;;11.90;62.90;;;;;;2582493;53;21458;-68
2024/01/01 10:42:46;;;;;;;4.18;1.12;;;11.90;63.00;;;;;;2336835;54;20952;-68
2024/01/01 10:45:12;;;;;;;3.08;0.70;;;12.00;62.90;;;;;;2582012;53;21084;-69
2024/01/01 10:47:38;;;;;;;5.53;0.85;;;12.00;63.30;;;;;;2338496;54;21462;-68
2024/01/01 10:50:35;;;;;;;3.92;1.05;;;12.00;63.10;;;;;;2337760;54;20973;-68
2024/01/01 10:53:29;;;;;;;4.05;0.80;;;12.10;62.50;;;;;;2321537;54;20985;-68
2024/01/01 11:00:28;;;;;;;4.75;0.93;;;12.10;62.50;;;;;;2340451;54;20937;-68
2024/01/01 11:02:54;;;;;;;4.97;1.05;;;12.20;62.30;;;;;;2337284;54;20952;-68
2024/01/01 11:05:30;;;;;;;3.28;0.88;;;12.30;63.10;;;;;;2581918;53;20928;-68
2024/01/01 11:07:57;;;;;;;6.40;1.12;;;12.30;63.10;;;;;;2580161;53;20985;-69
2024/01/01 11:10:45;;;;;;;4.28;0.88;;;12.30;63.10;;;;;;2581260;53;20956;-68
2024/01/01 11:14:00;;;;;;;2.95;1.10;;;12.40;62.50;;;;;;2582271;53;21024;-69
2024/01/01 11:16:27;;;;;;;5.30;1.10;;;12.40;63.00;;;;;;2582878;53;21016;-68
2024/01/01 11:18:57;;;;;;;6.45;1.52;;;12.40;62.50;;;;;;2337604;54;21020;-68
2024/01/01 11:21:30;;;;;;;4.20;0.95;;;12.40;62.50;;;;;;2581835;53;20922;-68
2024/01/01 11:24:01;;;;;;;4.35;0.95;;;12.40;62.30;;;;;;2580904;53;21603;-68
2024/01/01 11:26:34;;;;;;;4.78;1.00;;;12.50;62.40;;;;;;2328177;54;20993;-68
2024/01/01 11:29:28;;;;;;;5.68;1.27;;;12.50;62.20;;;;;;2320843;54;20957;-67
2024/01/01 11:32:03;;;;;;;5.35;1.20;;;12.50;61.40;;;;;;2337952;54;20936;-69
2024/01/01 11:34:35;;;;;;;4.28;1.12;;;12.50;62.20;;;;;;2337585;54;21000;-68
2024/01/01 11:37:03;;;;;;;3.50;0.80;;;12.50;61.80;;;;;;2337575;54;21470;-69
2024/01/01 11:39:30;;;;;;;6.12;0.80;;;12.50;61.80;;;;;;2337569;54;20989;-68
2024/01/01 11:41:56;;;;;;;2.87;0.77;;;12.50;62.00;;;;;;2582828;52;20999;-68
2024/01/01 11:44:25;;;;;;;4.75;1.00;;;12.50;62.10;;;;;;2577962;53;21000;-69
2024/01/01 11:46:53;;;;;;;4.95;0.80;;;12.50;62.10;;;;;;2581835;53;20945;-69
2024/01/01 11:49:19;;;;;;;4.50;0.73;;;12.50;62.20;;;;;;2580446;53;21033;-69
2024/01/01 11:51:53;;;;;;;3.40;0.62;;;12.50;62.30;;;;;;2578389;53;20978;-68
2024/01/01 11:54:19;;;;;;;2.87;0.50;;;12.60;62.10;;;;;;2582590;53;20938;-69
2024/01/01 11:56:48;;;;;;;4.22;0.95;;;12.60;62.40;;;;;;2336758;54;21317;-68
2024/01/01 11:59:15;;;;;;;3.08;0.70;;;12.60;62.20;;;;;;2583096;53;21506;-68
2024/01/01 12:01:44;;;;;;;2.85;0.75;;;12.70;62.20;;;;;;2337704;54;20929;-68
2024/01/01 12:04:11;;;;;;;6.05;1.00;;;12.70;62.00;;;;;;2337927;54;20997;-68
2024/01/01 12:06:38;;;;;;;3.42;0.80;;;12.70;62.00;;;;;;2337518;54;20989;-68
2024/01/01 12:09:11;;;;;;;3.90;0.88;;;12.70;62.00;;;;;;2582232;53;21394;-68
2024/01/01 12:11:43;;;;;;;4.25;0.70;;;12.80;61.80;;;;;;2338386;54;21781;-67
2024/01/01 12:14:10;;;;;;;4.28;1.10;;;12.80;62.10;;;;;;2559483;52;20917;-68
2024/01/01 12:16:37;;;;;;;4.25;1.08;;;12.80;62.00;;;;;;2572594;52;20929;-67
2024/01/01 12:19:05;;;;;;;3.75;0.95;;;12.90;61.90;;;;;;2582790;53;20973;-68
2024/01/01 12:21:41;;;;;;;3.90;0.88;;;12.90;62.00;;;;;;2337507;54;21012;-68
2024/01/01 12:24:13;;;;;;;2.62;0.60;;;12.90;61.60;;;;;;2583022;53;21101;-69
2024/01/01 12:26:39;;;;;;;6.23;0.83;;;12.90;62.10;;;;;;2572984;52;20974;-67
2024/01/01 12:29:09;;;;;;;6.72;1.23;;;12.90;62.10;;;;;;2328474;54;21610;-68
2024/01/01 12:31:37;;;;;;;3.08;0.80;;;13.00;62.00;;;;;;2337060;54;21497;-68
2024/01/01 12:34:04;;;;;;;4.55;1.30;;;13.00;62.00;;;;;;2337247;54;21232;-68
2024/01/01 12:36:31;;;;;;;5.40;1.10;;;13.10;61.90;;;;;;2340890;54;20932;-68
2024/01/01 12:38:58;;;;;;;3.40;1.02;;;13.00;61.80;;;;;;2582221;53;20964;-68
2024/01/01 12:41:24;;;;;;;5.95;1.17;;;13.00;61.50;;;;;;2336468;54;20981;-68
2024/01/01 12:43:53;;;;;;;4.47;0.90;;;13.00;61.20;;;;;;2581803;53;20933;-68
2024/01/01 12:46:19;;;;;;;5.30;0.90;;;13.00;61.30;;;;;;2338326;54;20970;-69
2024/01/01 12:48:46;;;;;;;3.40;0.88;;;13.00;61.50;;;;;;2576186;53;20980;-69
2024/01/01 12:51:16;;;;;;;3.65;0.77;;;13.00;61.60;;;;;;2336789;54;21036;-68
2024/01/01 12:53:43;;;;;;;3.28;0.90;;;13.10;61.60;;;;;;2336471;54;20981;-69
2024/01/01 12:56:10;;;;;;;3.40;0.95;;;13.10;61.70;;;;;;2338040;54;21004;-68